createdAt,value
2022-11-28T00:01:31.686Z,9.16
2022-11-28T00:03:58.608Z,9.20
2022-11-28T00:06:26.807Z,9.14
2022-11-28T00:08:53.998Z,9.03
2022-11-28T00:11:20.728Z,9.02
2022-11-28T00:13:47.607Z,9.03
2022-11-28T00:16:23.324Z,9.04
2022-11-28T00:18:51.691Z,9.02
2022-11-28T00:21:19.343Z,9.00
2022-11-28T00:23:47.705Z,8.88
2022-11-28T00:26:18.525Z,8.95
2022-11-28T00:28:45.338Z,8.95
2022-11-28T00:31:20.791Z,8.92
2022-11-28T00:33:48.065Z,8.91
2022-11-28T00:36:14.809Z,9.02
2022-11-28T00:38:42.292Z,9.01
2022-11-28T00:41:15.035Z,9.03
2022-11-28T00:43:43.479Z,8.98
2022-11-28T00:46:11.838Z,8.91
2022-11-28T00:48:38.454Z,8.93
2022-11-28T00:51:07.901Z,8.80
2022-11-28T00:53:34.781Z,8.87
2022-11-28T00:56:05.687Z,8.71
2022-11-28T00:58:33.368Z,8.71
2022-11-28T01:01:00.532Z,8.85
2022-11-28T01:03:27.210Z,8.91
2022-11-28T01:05:53.958Z,8.81
2022-11-28T01:08:20.539Z,8.78
2022-11-28T01:10:47.187Z,8.84
2022-11-28T01:13:13.832Z,8.85
2022-11-28T01:15:42.293Z,8.85
2022-11-28T01:18:09.322Z,8.85
2022-11-28T01:20:36.021Z,8.77
2022-11-28T01:23:02.799Z,8.75
2022-11-28T01:25:29.624Z,8.88
2022-11-28T01:27:56.205Z,8.97
2022-11-28T01:30:22.778Z,8.94
2022-11-28T01:32:49.310Z,8.97
2022-11-28T01:35:15.961Z,8.99
2022-11-28T01:37:42.480Z,8.89
2022-11-28T01:40:11.676Z,8.86
2022-11-28T01:42:38.309Z,8.94
2022-11-28T01:45:13.100Z,8.96
2022-11-28T01:47:40.161Z,8.94
2022-11-28T01:50:07.767Z,8.91
2022-11-28T01:52:37.341Z,8.97
2022-11-28T01:55:05.444Z,8.88
2022-11-28T01:57:32.096Z,8.86
2022-11-28T02:00:05.130Z,8.83
2022-11-28T02:02:47.655Z,8.86
2022-11-28T02:05:16.046Z,8.88
2022-11-28T02:07:44.642Z,8.98
2022-11-28T02:10:16.644Z,8.99
2022-11-28T02:13:04.650Z,8.99
2022-11-28T02:15:43.352Z,8.95
2022-11-28T02:18:35.213Z,8.81
2022-11-28T02:21:25.435Z,9.03
2022-11-28T02:24:19.731Z,9.19
2022-11-28T02:27:11.751Z,9.13
2022-11-28T02:30:09.465Z,9.11
2022-11-28T02:32:52.361Z,9.04
2022-11-28T02:35:40.693Z,8.95
2022-11-28T02:38:28.380Z,8.96
2022-11-28T02:41:00.948Z,8.93
2022-11-28T02:43:50.383Z,8.96
2022-11-28T02:46:25.731Z,9.05
2022-11-28T02:49:01.477Z,9.05
2022-11-28T02:51:45.205Z,9.05
2022-11-28T02:54:15.461Z,9.05
2022-11-28T02:56:50.462Z,9.15
2022-11-28T02:59:40.417Z,9.09
2022-11-28T03:02:13.601Z,9.01
2022-11-28T03:04:57.711Z,9.18
2022-11-28T03:07:57.969Z,8.81
2022-11-28T03:10:42.862Z,8.87
2022-11-28T03:13:30.596Z,8.90
2022-11-28T03:16:00.188Z,8.86
2022-11-28T03:18:33.888Z,8.94
2022-11-28T03:21:13.240Z,9.04
2022-11-28T03:23:48.706Z,9.12
2022-11-28T03:26:23.487Z,9.26
2022-11-28T03:29:12.824Z,9.15
2022-11-28T03:31:49.761Z,9.27
2022-11-28T03:34:21.446Z,9.34
2022-11-28T03:36:53.933Z,9.39
2022-11-28T03:39:26.287Z,9.41
2022-11-28T03:42:03.120Z,9.42
2022-11-28T03:44:40.521Z,9.44
2022-11-28T03:47:08.433Z,9.37
2022-11-28T03:49:42.402Z,9.31
2022-11-28T03:52:18.442Z,9.34
2022-11-28T03:54:59.602Z,9.24
2022-11-28T03:57:44.977Z,9.32
2022-11-28T04:00:12.980Z,9.41
2022-11-28T04:02:52.721Z,9.32
2022-11-28T04:05:42.984Z,9.33
2022-11-28T04:08:18.247Z,9.28
2022-11-28T04:11:14.905Z,9.31
2022-11-28T04:13:51.094Z,9.35
2022-11-28T04:16:36.526Z,9.44
2022-11-28T04:19:27.798Z,9.37
2022-11-28T04:21:57.374Z,9.32
2022-11-28T04:24:29.529Z,9.44
2022-11-28T04:27:01.796Z,9.49
2022-11-28T04:29:34.402Z,9.44
2022-11-28T04:32:02.703Z,9.32
2022-11-28T04:34:32.679Z,9.35
2022-11-28T04:37:05.455Z,9.27
2022-11-28T04:39:36.787Z,9.37
2022-11-28T04:42:13.675Z,9.31
2022-11-28T04:44:52.491Z,9.27
2022-11-28T04:47:19.339Z,9.28
2022-11-28T04:49:46.098Z,9.25
2022-11-28T04:52:21.273Z,9.32
2022-11-28T04:55:05.071Z,9.36
2022-11-28T04:57:41.367Z,9.33
2022-11-28T05:00:11.737Z,9.31
2022-11-28T05:02:40.804Z,9.26
2022-11-28T05:05:14.289Z,9.29
2022-11-28T05:07:40.881Z,9.32
2022-11-28T05:10:08.482Z,9.31
2022-11-28T05:12:35.051Z,9.31
2022-11-28T05:15:01.801Z,9.24
2022-11-28T05:17:28.391Z,9.30
2022-11-28T05:19:55.215Z,9.30
2022-11-28T05:22:22.276Z,9.22
2022-11-28T05:24:48.823Z,9.25
2022-11-28T05:27:15.716Z,9.29
2022-11-28T05:29:48.096Z,9.28
2022-11-28T05:32:18.475Z,9.46
2022-11-28T05:34:45.063Z,9.38
2022-11-28T05:37:11.666Z,9.35
2022-11-28T05:39:38.317Z,9.25
2022-11-28T05:42:05.011Z,9.27
2022-11-28T05:44:31.646Z,9.25
2022-11-28T05:46:58.365Z,9.26
2022-11-28T05:49:25.707Z,9.35
2022-11-28T05:51:52.264Z,9.25
2022-11-28T05:54:18.967Z,9.23
2022-11-28T05:56:45.621Z,9.26
2022-11-28T05:59:13.626Z,9.22
2022-11-28T06:01:40.478Z,9.32
2022-11-28T06:04:07.222Z,9.38
2022-11-28T06:06:35.687Z,9.35
2022-11-28T06:09:02.794Z,9.39
2022-11-28T06:11:31.242Z,9.42
2022-11-28T06:13:58.017Z,9.45
2022-11-28T06:16:27.222Z,9.47
2022-11-28T06:19:02.934Z,9.48
2022-11-28T06:21:30.984Z,9.40
2022-11-28T06:23:58.809Z,9.38
2022-11-28T06:26:27.028Z,9.45
2022-11-28T06:28:55.482Z,9.42
2022-11-28T06:31:28.493Z,9.44
2022-11-28T06:33:56.255Z,9.44
2022-11-28T06:36:24.653Z,9.37
2022-11-28T06:38:51.508Z,9.40
2022-11-28T06:41:19.868Z,9.39
2022-11-28T06:43:46.433Z,9.42
2022-11-28T06:46:16.683Z,9.33
2022-11-28T06:48:44.595Z,9.26
2022-11-28T06:51:11.877Z,9.29
2022-11-28T06:53:38.558Z,9.16
2022-11-28T06:56:13.950Z,9.11
2022-11-28T06:58:41.114Z,9.18
2022-11-28T07:01:10.431Z,9.24
2022-11-28T07:03:38.381Z,9.25
2022-11-28T07:06:05.780Z,9.22
2022-11-28T07:08:32.710Z,9.23
2022-11-28T07:11:07.697Z,9.25
2022-11-28T07:13:34.236Z,9.27
2022-11-28T07:16:00.743Z,9.20
2022-11-28T07:18:27.383Z,9.19
2022-11-28T07:20:53.980Z,9.18
2022-11-28T07:23:20.563Z,9.14
2022-11-28T07:25:47.106Z,9.21
2022-11-28T07:28:13.641Z,9.24
2022-11-28T07:30:41.155Z,9.25
2022-11-28T07:33:08.127Z,9.25
2022-11-28T07:35:34.668Z,9.21
2022-11-28T07:38:01.389Z,9.19
2022-11-28T07:40:28.159Z,9.23
2022-11-28T07:42:54.801Z,9.24
2022-11-28T07:45:22.898Z,9.27
2022-11-28T07:47:49.574Z,9.32
2022-11-28T07:50:16.142Z,9.39
2022-11-28T07:52:42.684Z,9.57
2022-11-28T07:55:09.373Z,9.46
2022-11-28T07:57:36.074Z,9.48
2022-11-28T08:00:04.682Z,9.43
2022-11-28T08:02:39.283Z,9.50
2022-11-28T08:05:06.359Z,9.44
2022-11-28T08:07:33.152Z,9.40
2022-11-28T08:09:59.706Z,9.63
2022-11-28T08:12:26.585Z,9.65
2022-11-28T08:14:53.346Z,9.47
2022-11-28T08:17:20.005Z,9.61
2022-11-28T08:19:46.648Z,9.60
2022-11-28T08:22:13.350Z,9.65
2022-11-28T08:24:40.203Z,9.65
2022-11-28T08:27:07.039Z,9.68
2022-11-28T08:29:34.021Z,9.65
2022-11-28T08:32:00.723Z,9.68
2022-11-28T08:34:27.256Z,9.65
2022-11-28T08:36:54.280Z,9.69
2022-11-28T08:39:25.052Z,9.72
2022-11-28T08:41:59.603Z,9.64
2022-11-28T08:44:27.516Z,9.72
2022-11-28T08:46:54.683Z,9.81
2022-11-28T08:49:21.434Z,9.75
2022-11-28T08:51:47.964Z,9.80
2022-11-28T08:54:15.104Z,9.68
2022-11-28T08:56:41.696Z,9.79
2022-11-28T08:59:09.469Z,9.87
2022-11-28T09:01:36.193Z,9.73
2022-11-28T09:04:04.112Z,9.70
2022-11-28T09:06:30.906Z,9.84
2022-11-28T09:08:57.945Z,9.72
2022-11-28T09:11:24.545Z,9.81
2022-11-28T09:13:51.229Z,9.74
2022-11-28T09:16:18.328Z,9.74
2022-11-28T09:18:45.103Z,9.70
2022-11-28T09:21:13.900Z,9.79
2022-11-28T09:23:42.087Z,9.73
2022-11-28T09:26:10.733Z,9.78
2022-11-28T09:28:37.344Z,9.89
2022-11-28T09:31:05.846Z,9.66
2022-11-28T09:33:33.441Z,9.69
2022-11-28T09:36:06.947Z,9.71
2022-11-28T09:38:34.439Z,9.82
2022-11-28T09:41:02.548Z,9.92
2022-11-28T09:43:36.291Z,9.93
2022-11-28T09:46:08.275Z,9.90
2022-11-28T09:48:46.712Z,9.90
2022-11-28T09:51:24.196Z,9.91
2022-11-28T09:54:03.842Z,9.93
2022-11-28T09:56:30.659Z,9.79
2022-11-28T09:59:03.020Z,9.90
2022-11-28T10:02:04.037Z,9.93
2022-11-28T10:05:05.244Z,10.05
2022-11-28T10:08:14.146Z,9.96
2022-11-28T10:10:55.094Z,9.75
2022-11-28T10:14:05.992Z,9.80
2022-11-28T10:16:41.490Z,9.80
2022-11-28T10:19:46.007Z,9.93
2022-11-28T10:22:07.450Z,9.89
2022-11-28T10:24:39.353Z,9.85
2022-11-28T10:27:06.783Z,9.80
2022-11-28T10:29:39.537Z,9.84
2022-11-28T10:32:06.678Z,9.88
2022-11-28T10:34:45.357Z,9.88
2022-11-28T10:37:27.994Z,9.92
2022-11-28T10:39:56.081Z,9.88
2022-11-28T10:42:35.286Z,9.86
2022-11-28T10:45:11.028Z,9.84
2022-11-28T10:48:07.537Z,9.81
2022-11-28T10:50:55.628Z,9.79
2022-11-28T10:53:40.584Z,9.86
2022-11-28T10:56:39.217Z,9.85
2022-11-28T10:59:36.905Z,9.78
2022-11-28T11:02:32.921Z,9.70
2022-11-28T11:04:59.919Z,9.80
2022-11-28T11:07:32.137Z,9.96
2022-11-28T11:10:17.293Z,9.97
2022-11-28T11:12:44.814Z,9.93
2022-11-28T11:15:25.172Z,9.97
2022-11-28T11:17:52.067Z,10.07
2022-11-28T11:20:31.206Z,9.91
2022-11-28T11:23:01.372Z,9.90
2022-11-28T11:25:32.689Z,10.00
2022-11-28T11:28:03.347Z,9.96
2022-11-28T11:30:33.956Z,9.90
2022-11-28T11:33:03.789Z,9.95
2022-11-28T11:35:35.547Z,9.97
2022-11-28T11:38:17.286Z,10.04
2022-11-28T11:40:44.718Z,9.98
2022-11-28T11:43:30.964Z,9.95
2022-11-28T11:46:12.556Z,9.96
2022-11-28T11:48:40.379Z,9.93
2022-11-28T11:51:28.841Z,9.93
2022-11-28T11:54:28.335Z,9.92
2022-11-28T11:57:11.191Z,9.86
2022-11-28T11:59:50.631Z,9.91
2022-11-28T12:02:43.293Z,9.96
2022-11-28T12:05:18.463Z,9.91
2022-11-28T12:08:01.577Z,9.85
2022-11-28T12:10:46.340Z,9.86
2022-11-28T12:13:19.970Z,9.85
2022-11-28T12:16:13.548Z,9.88
2022-11-28T12:18:59.407Z,9.73
2022-11-28T12:21:40.093Z,9.93
2022-11-28T12:24:12.318Z,9.88
2022-11-28T12:27:06.480Z,9.81
2022-11-28T12:29:39.398Z,9.77
2022-11-28T12:32:28.670Z,9.75
2022-11-28T12:35:17.069Z,9.80
2022-11-28T12:41:03.986Z,9.85
2022-11-28T12:43:46.540Z,9.68
2022-11-28T12:46:41.995Z,9.75
2022-11-28T12:49:19.733Z,9.81
2022-11-28T12:52:00.764Z,9.77
2022-11-28T12:54:39.533Z,9.86
2022-11-28T12:57:06.210Z,9.71
2022-11-28T12:59:54.094Z,9.79
2022-11-28T13:02:41.867Z,9.67
2022-11-28T13:05:30.639Z,9.72
2022-11-28T13:08:22.935Z,9.74
2022-11-28T13:11:01.678Z,9.70
2022-11-28T13:13:42.871Z,9.74
2022-11-28T13:16:13.083Z,9.79
2022-11-28T13:18:44.291Z,9.86
2022-11-28T13:21:43.349Z,9.84
2022-11-28T13:24:16.810Z,9.85
2022-11-28T13:26:46.173Z,9.69
2022-11-28T13:29:38.690Z,9.80
2022-11-28T13:32:15.254Z,9.82
2022-11-28T13:34:42.350Z,9.87
2022-11-28T13:40:26.668Z,9.85
2022-11-28T13:43:14.131Z,9.91
2022-11-28T13:45:43.542Z,9.90
2022-11-28T13:51:31.500Z,9.81
2022-11-28T13:54:16.977Z,9.88
2022-11-28T13:56:46.334Z,9.82
2022-11-28T13:59:25.272Z,9.89
2022-11-28T14:02:01.468Z,9.82
2022-11-28T14:04:29.775Z,9.80
2022-11-28T14:07:06.960Z,9.84
2022-11-28T14:09:47.482Z,9.94
2022-11-28T14:12:25.518Z,9.96
2022-11-28T14:15:01.480Z,9.94
2022-11-28T14:17:50.998Z,9.94
2022-11-28T14:20:37.322Z,9.91
2022-11-28T14:23:23.290Z,9.93
2022-11-28T14:25:51.150Z,9.99
2022-11-28T14:28:38.081Z,9.99
2022-11-28T14:32:06.694Z,10.00
2022-11-28T14:34:46.244Z,9.98
2022-11-28T14:37:19.089Z,9.91
2022-11-28T14:39:50.524Z,9.93
2022-11-28T14:42:44.152Z,9.94
2022-11-28T14:45:43.256Z,9.96
2022-11-28T14:48:28.444Z,9.96
2022-11-28T14:51:01.409Z,9.95
2022-11-28T14:53:45.418Z,10.06
2022-11-28T14:56:15.116Z,10.03
2022-11-28T14:58:50.331Z,9.92
2022-11-28T15:01:42.326Z,9.99
2022-11-28T15:04:34.153Z,9.99
2022-11-28T15:07:03.197Z,9.84
2022-11-28T15:09:48.977Z,9.93
2022-11-28T15:12:37.840Z,9.89
2022-11-28T15:15:07.909Z,9.90
2022-11-28T15:17:35.189Z,9.88
2022-11-28T15:20:08.967Z,9.80
2022-11-28T15:22:43.362Z,9.88
2022-11-28T15:25:35.496Z,9.84
2022-11-28T15:28:19.366Z,9.97
2022-11-28T15:30:51.408Z,9.96
2022-11-28T15:33:20.035Z,9.90
2022-11-28T15:36:10.800Z,9.95
2022-11-28T15:38:41.267Z,9.96
2022-11-28T15:41:08.098Z,9.99
2022-11-28T15:43:37.628Z,9.98
2022-11-28T15:46:05.863Z,10.06
2022-11-28T15:48:39.377Z,10.10
2022-11-28T15:51:08.425Z,10.22
2022-11-28T15:53:42.076Z,10.16
2022-11-28T15:56:14.888Z,10.17
2022-11-28T15:58:43.715Z,10.11
2022-11-28T16:01:19.692Z,10.16
2022-11-28T16:03:57.046Z,10.19
2022-11-28T16:06:26.640Z,10.13
2022-11-28T16:09:03.921Z,10.11
2022-11-28T16:11:31.653Z,10.14
2022-11-28T16:14:01.346Z,10.13
2022-11-28T16:16:31.368Z,10.15
2022-11-28T16:19:01.802Z,10.16
2022-11-28T16:21:34.922Z,10.14
2022-11-28T16:24:03.310Z,10.12
2022-11-28T16:26:34.163Z,10.11
2022-11-28T16:29:06.833Z,10.26
2022-11-28T16:31:34.731Z,10.11
2022-11-28T16:34:02.635Z,10.09
2022-11-28T16:36:29.883Z,10.13
2022-11-28T16:39:23.629Z,10.14
2022-11-28T16:42:06.333Z,10.14
2022-11-28T16:44:33.734Z,10.18
2022-11-28T16:47:00.647Z,10.14
2022-11-28T16:49:47.900Z,10.20
2022-11-28T16:52:24.082Z,10.10
2022-11-28T16:54:52.248Z,10.06
2022-11-28T16:57:20.160Z,10.11
2022-11-28T16:59:48.168Z,10.07
2022-11-28T17:02:17.764Z,10.18
2022-11-28T17:04:45.964Z,10.08
2022-11-28T17:07:16.317Z,10.22
2022-11-28T17:09:44.634Z,10.22
2022-11-28T17:12:32.404Z,10.15
2022-11-28T17:14:59.276Z,10.26
2022-11-28T17:17:27.373Z,10.30
2022-11-28T17:19:54.135Z,10.21
2022-11-28T17:22:29.850Z,10.20
2022-11-28T17:25:00.129Z,10.18
2022-11-28T17:27:27.929Z,10.29
2022-11-28T17:29:54.913Z,10.23
2022-11-28T17:32:22.845Z,10.30
2022-11-28T17:34:49.418Z,10.33
2022-11-28T17:37:16.534Z,10.32
2022-11-28T17:40:01.879Z,10.29
2022-11-28T17:42:30.535Z,10.16
2022-11-28T17:44:57.512Z,10.25
2022-11-28T17:47:24.939Z,10.39
2022-11-28T17:49:52.206Z,10.29
2022-11-28T17:52:20.364Z,10.28
2022-11-28T17:54:47.050Z,10.32
2022-11-28T17:57:14.115Z,10.43
2022-11-28T17:59:40.640Z,10.21
2022-11-28T18:02:07.478Z,10.17
2022-11-28T18:04:34.818Z,10.26
2022-11-28T18:07:01.942Z,10.26
2022-11-28T18:09:29.159Z,10.21
2022-11-28T18:11:55.731Z,10.20
2022-11-28T18:14:22.216Z,10.28
2022-11-28T18:16:49.279Z,10.20
2022-11-28T18:19:15.971Z,10.21
2022-11-28T18:21:42.630Z,10.20
2022-11-28T18:24:09.281Z,10.14
2022-11-28T18:26:37.579Z,10.08
2022-11-28T18:29:04.600Z,10.18
2022-11-28T18:31:32.324Z,10.16
2022-11-28T18:34:02.507Z,10.13
2022-11-28T18:36:33.931Z,10.21
2022-11-28T18:39:04.389Z,10.24
2022-11-28T18:41:31.623Z,10.20
2022-11-28T18:44:01.334Z,10.19
2022-11-28T18:46:29.759Z,10.17
2022-11-28T18:48:57.367Z,10.10
2022-11-28T18:51:29.982Z,10.19
2022-11-28T18:53:57.782Z,10.19
2022-11-28T18:56:27.188Z,10.28
2022-11-28T18:58:54.294Z,10.19
2022-11-28T19:01:22.608Z,10.22
2022-11-28T19:03:54.496Z,10.26
2022-11-28T19:06:21.721Z,10.19
2022-11-28T19:08:52.504Z,10.17
2022-11-28T19:11:20.161Z,10.10
2022-11-28T19:13:48.138Z,10.06
2022-11-28T19:16:17.956Z,10.03
2022-11-28T19:18:45.523Z,10.05
2022-11-28T19:21:15.656Z,10.15
2022-11-28T19:23:42.842Z,10.03
2022-11-28T19:26:12.367Z,10.00
2022-11-28T19:28:40.885Z,9.96
2022-11-28T19:31:17.216Z,10.07
2022-11-28T19:33:44.403Z,10.29
2022-11-28T19:36:13.919Z,10.27
2022-11-28T19:38:41.629Z,10.33
2022-11-28T19:41:10.242Z,10.24
2022-11-28T19:43:37.161Z,10.19
2022-11-28T19:46:06.315Z,10.26
2022-11-28T19:48:35.015Z,10.27
2022-11-28T19:51:03.786Z,10.27
2022-11-28T19:53:32.099Z,10.25
2022-11-28T19:56:03.820Z,10.25
2022-11-28T19:58:31.494Z,10.29
2022-11-28T20:01:18.661Z,10.44
2022-11-28T20:03:47.755Z,10.34
2022-11-28T20:06:19.154Z,10.34
2022-11-28T20:08:46.966Z,10.28
2022-11-28T20:11:17.181Z,10.37
2022-11-28T20:13:44.435Z,10.40
2022-11-28T20:16:12.713Z,10.28
2022-11-28T20:18:41.551Z,10.30
2022-11-28T20:21:14.817Z,10.25
2022-11-28T20:23:47.223Z,10.32
2022-11-28T20:26:14.865Z,10.27
2022-11-28T20:28:42.711Z,10.31
2022-11-28T20:31:37.038Z,10.35
2022-11-28T20:34:06.125Z,10.29
2022-11-28T20:36:33.524Z,10.33
2022-11-28T20:39:01.414Z,10.45
2022-11-28T20:41:29.188Z,10.47
2022-11-28T20:43:56.052Z,10.54
2022-11-28T20:46:30.037Z,10.40
2022-11-28T20:49:03.148Z,10.49
2022-11-28T20:51:32.639Z,10.42
2022-11-28T20:54:00.409Z,10.37
2022-11-28T20:56:29.848Z,10.33
2022-11-28T20:58:59.146Z,10.47
2022-11-28T21:01:27.916Z,10.51
2022-11-28T21:03:54.538Z,10.44
2022-11-28T21:06:21.242Z,10.55
2022-11-28T21:08:48.043Z,10.49
2022-11-28T21:11:30.972Z,10.50
2022-11-28T21:14:04.871Z,10.54
2022-11-28T21:16:33.078Z,10.56
2022-11-28T21:19:04.494Z,10.50
2022-11-28T21:21:32.714Z,10.51
2022-11-28T21:24:03.095Z,10.41
2022-11-28T21:26:33.070Z,10.59
2022-11-28T21:29:05.901Z,10.54
2022-11-28T21:31:35.030Z,10.41
2022-11-28T21:34:02.099Z,10.39
2022-11-28T21:36:30.500Z,10.36
2022-11-28T21:39:00.670Z,10.35
2022-11-28T21:41:30.041Z,10.39
2022-11-28T21:43:58.474Z,10.57
2022-11-28T21:46:26.381Z,10.50
2022-11-28T21:48:53.690Z,10.42
2022-11-28T21:51:22.153Z,10.50
2022-11-28T21:53:49.295Z,10.52
2022-11-28T21:56:15.848Z,10.33
2022-11-28T21:58:42.897Z,10.26
2022-11-28T22:01:11.865Z,10.20
2022-11-28T22:03:39.687Z,10.22
2022-11-28T22:06:22.670Z,10.23
2022-11-28T22:08:50.223Z,10.30
2022-11-28T22:11:17.710Z,10.23
2022-11-28T22:13:45.852Z,10.21
2022-11-28T22:16:16.648Z,10.25
2022-11-28T22:18:44.940Z,10.32
2022-11-28T22:21:50.054Z,10.15
2022-11-28T22:23:59.466Z,9.98
2022-11-28T22:26:26.156Z,9.93
2022-11-28T22:28:53.744Z,9.90
2022-11-28T22:31:22.561Z,9.90
2022-11-28T22:33:50.469Z,9.93
2022-11-28T22:36:19.711Z,10.00
2022-11-28T22:38:48.316Z,10.05
2022-11-28T22:41:26.209Z,9.88
2022-11-28T22:43:57.233Z,9.85
2022-11-28T22:46:24.422Z,9.88
2022-11-28T22:48:51.869Z,9.90
2022-11-28T22:51:21.425Z,9.90
2022-11-28T22:53:51.793Z,9.90
2022-11-28T22:56:18.402Z,9.80
2022-11-28T22:58:45.427Z,9.73
2022-11-28T23:01:17.100Z,9.84
2022-11-28T23:03:44.871Z,9.85
2022-11-28T23:06:17.536Z,9.94
2022-11-28T23:08:45.098Z,10.00
2022-11-28T23:11:17.970Z,10.03
2022-11-28T23:13:47.797Z,10.01
2022-11-28T23:16:16.387Z,9.98
2022-11-28T23:18:46.555Z,9.97
2022-11-28T23:21:14.889Z,9.95
2022-11-28T23:23:43.843Z,10.03
2022-11-28T23:26:13.440Z,9.94
2022-11-28T23:28:40.557Z,10.07
2022-11-28T23:31:16.390Z,10.08
2022-11-28T23:33:44.427Z,10.11
2022-11-28T23:36:24.432Z,10.10
2022-11-28T23:38:54.417Z,10.28
2022-11-28T23:41:21.514Z,10.27
2022-11-28T23:43:48.518Z,10.21
2022-11-28T23:46:16.064Z,10.26
2022-11-28T23:48:43.707Z,10.41
2022-11-28T23:51:12.744Z,10.39
2022-11-28T23:53:39.932Z,10.37
2022-11-28T23:56:20.931Z,10.26
2022-11-28T23:58:47.843Z,10.21
